sensor_id;sensor_type;location;lat;lon;timestamp;pressure;altitude;pressure_sealevel;temperature;humidity
44481;BME280;30184;42.018;23.670;2023-03-17T00:02:10;91360.31;;;1.58;81.71
44481;BME280;30184;42.018;23.670;2023-03-17T00:04:41;91387.09;;;1.72;81.39
44481;BME280;30184;42.018;23.670;2023-03-17T00:07:14;91309.03;;;1.17;80.28
44481;BME280;30184;42.018;23.670;2023-03-17T00:09:44;91385.56;;;1.67;79.92
44481;BME280;30184;42.018;23.670;2023-03-17T00:12:14;91379.84;;;1.72;80.46
44481;BME280;30184;42.018;23.670;2023-03-17T00:14:44;91390.56;;;1.76;80.85
44481;BME280;30184;42.018;23.670;2023-03-17T00:17:14;91382.91;;;1.74;80.59
44481;BME280;30184;42.018;23.670;2023-03-17T00:19:44;91390.94;;;1.74;80.30
44481;BME280;30184;42.018;23.670;2023-03-17T00:22:15;91380.25;;;1.74;80.48
44481;BME280;30184;42.018;23.670;2023-03-17T00:24:48;91383.28;;;1.73;79.75
44481;BME280;30184;42.018;23.670;2023-03-17T00:27:18;91376.41;;;1.65;79.50
44481;BME280;30184;42.018;23.670;2023-03-17T00:29:47;91376.78;;;1.63;80.06
44481;BME280;30184;42.018;23.670;2023-03-17T00:32:19;91387.47;;;1.70;79.89
44481;BME280;30184;42.018;23.670;2023-03-17T00:34:52;91205.91;;;-0.03;79.18
44481;BME280;30184;42.018;23.670;2023-03-17T00:37:21;91382.88;;;1.60;78.85
44481;BME280;30184;42.018;23.670;2023-03-17T00:39:51;91388.19;;;1.49;79.27
44481;BME280;30184;42.018;23.670;2023-03-17T00:42:20;91377.06;;;1.40;79.67
44481;BME280;30184;42.018;23.670;2023-03-17T00:44:49;91384.31;;;1.40;79.67
44481;BME280;30184;42.018;23.670;2023-03-17T00:47:19;91393.13;;;1.37;79.98
44481;BME280;30184;42.018;23.670;2023-03-17T00:49:51;91339.13;;;0.99;79.84
44481;BME280;30184;42.018;23.670;2023-03-17T00:52:20;91396.94;;;1.36;80.06
44481;BME280;30184;42.018;23.670;2023-03-17T00:54:50;91402.28;;;1.36;80.23
44481;BME280;30184;42.018;23.670;2023-03-17T00:57:21;91396.94;;;1.36;79.99
44481;BME280;30184;42.018;23.670;2023-03-17T00:59:51;91408.75;;;1.35;79.59
44481;BME280;30184;42.018;23.670;2023-03-17T01:02:20;91396.94;;;1.36;79.77
44481;BME280;30184;42.018;23.670;2023-03-17T01:04:49;91404.19;;;1.35;79.53
44481;BME280;30184;42.018;23.670;2023-03-17T01:07:31;91393.50;;;1.35;79.51
44481;BME280;30184;42.018;23.670;2023-03-17T01:10:00;91404.16;;;1.32;79.51
44481;BME280;30184;42.018;23.670;2023-03-17T01:12:29;91411.44;;;1.35;79.41
44481;BME280;30184;42.018;23.670;2023-03-17T01:14:59;91411.84;;;1.37;79.14
44481;BME280;30184;42.018;23.670;2023-03-17T01:17:29;91443.91;;;1.37;79.24
44481;BME280;30184;42.018;23.670;2023-03-17T01:19:58;91414.88;;;1.35;79.37
44481;BME280;30184;42.018;23.670;2023-03-17T01:22:28;91413.31;;;1.31;79.16
44481;BME280;30184;42.018;23.670;2023-03-17T01:24:59;91417.53;;;1.32;79.03
44481;BME280;30184;42.018;23.670;2023-03-17T01:27:33;91425.13;;;1.19;79.13
44481;BME280;30184;42.018;23.670;2023-03-17T01:30:05;91424.38;;;1.26;79.73
44481;BME280;30184;42.018;23.670;2023-03-17T01:32:34;91423.97;;;1.24;79.10
44481;BME280;30184;42.018;23.670;2023-03-17T01:35:05;91408.25;;;1.11;79.16
44481;BME280;30184;42.018;23.670;2023-03-17T01:37:34;91421.69;;;1.22;79.41
44481;BME280;30184;42.018;23.670;2023-03-17T01:40:07;91409.03;;;1.12;79.30
44481;BME280;30184;42.018;23.670;2023-03-17T01:42:41;91419.00;;;1.19;79.19
44481;BME280;30184;42.018;23.670;2023-03-17T01:48:13;91430.44;;;1.16;79.26
44481;BME280;30184;42.018;23.670;2023-03-17T01:50:45;91426.63;;;1.17;79.58
44481;BME280;30184;42.018;23.670;2023-03-17T01:53:17;91425.50;;;1.18;79.55
44481;BME280;30184;42.018;23.670;2023-03-17T01:55:50;91453.69;;;1.11;79.29
44481;BME280;30184;42.018;23.670;2023-03-17T01:58:22;91431.56;;;1.11;79.69
44481;BME280;30184;42.018;23.670;2023-03-17T02:00:54;91442.28;;;1.22;79.40
44481;BME280;30184;42.018;23.670;2023-03-17T02:03:23;91443.47;;;1.24;79.10
44481;BME280;30184;42.018;23.670;2023-03-17T02:05:55;91447.59;;;1.15;78.96
44481;BME280;30184;42.018;23.670;2023-03-17T02:08:29;91447.28;;;1.27;79.02
44481;BME280;30184;42.018;23.670;2023-03-17T02:11:03;91453.38;;;1.24;78.86
44481;BME280;30184;42.018;23.670;2023-03-17T02:13:32;91463.69;;;1.25;79.08
44481;BME280;30184;42.018;23.670;2023-03-17T02:16:02;91377.88;;;0.68;78.76
44481;BME280;30184;42.018;23.670;2023-03-17T02:18:32;91459.13;;;1.26;79.03
44481;BME280;30184;42.018;23.670;2023-03-17T02:21:27;91468.31;;;1.28;78.96
44481;BME280;30184;42.018;23.670;2023-03-17T02:23:58;91474.78;;;1.31;78.88
44481;BME280;30184;42.018;23.670;2023-03-17T02:26:30;91487.44;;;1.34;78.86
44481;BME280;30184;42.018;23.670;2023-03-17T02:29:02;91450.31;;;1.18;78.91
44481;BME280;30184;42.018;23.670;2023-03-17T02:31:32;91482.88;;;1.38;78.85
44481;BME280;30184;42.018;23.670;2023-03-17T02:34:02;91479.06;;;1.39;78.53
44481;BME280;30184;42.018;23.670;2023-03-17T02:36:33;91495.09;;;1.39;78.36
44481;BME280;30184;42.018;23.670;2023-03-17T02:39:03;91500.00;;;1.26;78.32
44481;BME280;30184;42.018;23.670;2023-03-17T02:41:32;91485.16;;;1.39;78.58
44481;BME280;30184;42.018;23.670;2023-03-17T02:44:02;91497.78;;;1.42;78.54
44481;BME280;30184;42.018;23.670;2023-03-17T02:46:31;91489.00;;;1.38;77.96
44481;BME280;30184;42.018;23.670;2023-03-17T02:49:01;91497.00;;;1.42;78.15
44481;BME280;30184;42.018;23.670;2023-03-17T02:51:30;91490.91;;;1.38;78.34
44481;BME280;30184;42.018;23.670;2023-03-17T02:54:01;91431.88;;;0.99;78.12
44481;BME280;30184;42.018;23.670;2023-03-17T02:56:30;91500.47;;;1.46;78.39
44481;BME280;30184;42.018;23.670;2023-03-17T02:58:59;91466.75;;;1.24;78.51
44481;BME280;30184;42.018;23.670;2023-03-17T03:01:28;91500.13;;;1.47;78.53
44481;BME280;30184;42.018;23.670;2023-03-17T03:03:58;91518.06;;;1.47;78.60
44481;BME280;30184;42.018;23.670;2023-03-17T03:06:27;91512.72;;;1.47;78.33
44481;BME280;30184;42.018;23.670;2023-03-17T03:08:56;91509.66;;;1.45;78.30
44481;BME280;30184;42.018;23.670;2023-03-17T03:11:27;91509.28;;;1.46;78.39
44481;BME280;30184;42.018;23.670;2023-03-17T03:13:56;91505.47;;;1.47;78.38
44481;BME280;30184;42.018;23.670;2023-03-17T03:16:25;91506.97;;;1.48;78.18
44481;BME280;30184;42.018;23.670;2023-03-17T03:18:54;91470.91;;;1.21;78.18
44481;BME280;30184;42.018;23.670;2023-03-17T03:21:24;91555.47;;;1.43;78.38
44481;BME280;30184;42.018;23.670;2023-03-17T03:23:53;91528.38;;;1.52;78.17
44481;BME280;30184;42.018;23.670;2023-03-17T03:26:22;91516.56;;;1.53;78.42
44481;BME280;30184;42.018;23.670;2023-03-17T03:28:53;91521.91;;;1.53;78.66
44481;BME280;30184;42.018;23.670;2023-03-17T03:31:24;91524.97;;;1.55;78.42
44481;BME280;30184;42.018;23.670;2023-03-17T03:33:53;91520.03;;;1.57;78.47
44481;BME280;30184;42.018;23.670;2023-03-17T03:36:22;91525.38;;;1.57;77.80
44481;BME280;30184;42.018;23.670;2023-03-17T03:38:53;91516.53;;;1.49;77.97
44481;BME280;30184;42.018;23.670;2023-03-17T03:41:23;91504.25;;;1.41;77.78
44481;BME280;30184;42.018;23.670;2023-03-17T03:43:54;91531.88;;;1.56;77.95
44481;BME280;30184;42.018;23.670;2023-03-17T03:46:23;91441.00;;;0.94;77.91
44481;BME280;30184;42.018;23.670;2023-03-17T03:48:53;91533.78;;;1.59;78.13
44481;BME280;30184;42.018;23.670;2023-03-17T03:51:23;91528.06;;;1.57;77.64
44481;BME280;30184;42.018;23.670;2023-03-17T03:53:52;91515.72;;;1.42;77.92
44481;BME280;30184;42.018;23.670;2023-03-17T03:56:21;91538.72;;;1.54;77.94
44481;BME280;30184;42.018;23.670;2023-03-17T03:58:51;91545.97;;;1.53;78.09
44481;BME280;30184;42.018;23.670;2023-03-17T04:01:21;91554.75;;;1.54;78.03
44481;BME280;30184;42.018;23.670;2023-03-17T04:03:51;91546.38;;;1.55;78.19
44481;BME280;30184;42.018;23.670;2023-03-17T04:06:20;91560.16;;;1.57;77.71
44481;BME280;30184;42.018;23.670;2023-03-17T04:08:50;91554.00;;;1.53;78.01
44481;BME280;30184;42.018;23.670;2023-03-17T04:11:19;91553.63;;;1.55;78.16
44481;BME280;30184;42.018;23.670;2023-03-17T04:13:48;91550.19;;;1.58;78.28
44481;BME280;30184;42.018;23.670;2023-03-17T04:16:18;91567.41;;;1.60;78.27
44481;BME280;30184;42.018;23.670;2023-03-17T04:18:48;91541.41;;;1.54;77.76
44481;BME280;30184;42.018;23.670;2023-03-17T04:21:18;91551.75;;;1.62;77.89
44481;BME280;30184;42.018;23.670;2023-03-17T04:23:48;91592.28;;;1.64;77.61
44481;BME280;30184;42.018;23.670;2023-03-17T04:26:17;91543.31;;;1.53;77.62
44481;BME280;30184;42.018;23.670;2023-03-17T04:28:48;91557.91;;;1.66;77.75
44481;BME280;30184;42.018;23.670;2023-03-17T04:31:18;91560.94;;;1.68;77.54
44481;BME280;30184;42.018;23.670;2023-03-17T04:33:49;91566.69;;;1.70;77.85
44481;BME280;30184;42.018;23.670;2023-03-17T04:36:19;91488.09;;;1.17;77.42
44481;BME280;30184;42.018;23.670;2023-03-17T04:38:49;91576.25;;;1.71;77.58
44481;BME280;30184;42.018;23.670;2023-03-17T04:41:19;91564.78;;;1.71;77.57
44481;BME280;30184;42.018;23.670;2023-03-17T04:43:48;91575.53;;;1.74;77.71
44481;BME280;30184;42.018;23.670;2023-03-17T04:46:17;91579.72;;;1.79;77.29
44481;BME280;30184;42.018;23.670;2023-03-17T04:48:47;91560.19;;;1.68;77.25
44481;BME280;30184;42.018;23.670;2023-03-17T04:51:17;91545.59;;;1.55;77.21
44481;BME280;30184;42.018;23.670;2023-03-17T04:53:46;91587.41;;;1.84;77.32
44481;BME280;30184;42.018;23.670;2023-03-17T04:56:16;91585.88;;;1.86;77.31
44481;BME280;30184;42.018;23.670;2023-03-17T04:58:45;91589.34;;;1.91;77.64
44481;BME280;30184;42.018;23.670;2023-03-17T05:01:14;91589.75;;;1.96;77.47
44481;BME280;30184;42.018;23.670;2023-03-17T05:03:44;91565.19;;;1.76;77.30
44481;BME280;30184;42.018;23.670;2023-03-17T05:06:14;91585.53;;;1.92;77.00
44481;BME280;30184;42.018;23.670;2023-03-17T05:08:44;91606.63;;;2.07;75.83
44481;BME280;30184;42.018;23.670;2023-03-17T05:11:14;91530.19;;;1.34;75.64
44481;BME280;30184;42.018;23.670;2023-03-17T05:13:44;91663.63;;;2.08;75.99
44481;BME280;30184;42.018;23.670;2023-03-17T05:16:13;91622.31;;;2.09;76.38
44481;BME280;30184;42.018;23.670;2023-03-17T05:18:43;91624.25;;;2.12;76.25
44481;BME280;30184;42.018;23.670;2023-03-17T05:21:12;91620.06;;;2.11;76.33
44481;BME280;30184;42.018;23.670;2023-03-17T05:23:43;91605.44;;;1.98;76.42
44481;BME280;30184;42.018;23.670;2023-03-17T05:26:12;91629.22;;;2.13;76.55
44481;BME280;30184;42.018;23.670;2023-03-17T05:28:42;91629.25;;;2.17;76.03
44481;BME280;30184;42.018;23.670;2023-03-17T05:31:11;91657.53;;;2.11;75.12
44481;BME280;30184;42.018;23.670;2023-03-17T05:33:40;91632.31;;;2.22;75.20
44481;BME280;30184;42.018;23.670;2023-03-17T05:36:11;91638.09;;;2.28;74.77
44481;BME280;30184;42.018;23.670;2023-03-17T05:38:41;91633.91;;;2.34;74.74
44481;BME280;30184;42.018;23.670;2023-03-17T05:41:11;91630.88;;;2.39;74.98
44481;BME280;30184;42.018;23.670;2023-03-17T05:43:41;91635.09;;;2.44;74.70
44481;BME280;30184;42.018;23.670;2023-03-17T05:46:10;91653.44;;;2.38;74.80
44481;BME280;30184;42.018;23.670;2023-03-17T05:48:40;91634.78;;;2.63;74.64
44481;BME280;30184;42.018;23.670;2023-03-17T05:51:09;91644.00;;;2.73;74.92
44481;BME280;30184;42.018;23.670;2023-03-17T05:53:38;91644.00;;;2.80;74.68
44481;BME280;30184;42.018;23.670;2023-03-17T05:56:12;91632.13;;;2.74;74.49
44481;BME280;30184;42.018;23.670;2023-03-17T05:58:45;91636.38;;;2.85;73.27
44481;BME280;30184;42.018;23.670;2023-03-17T06:01:18;91648.69;;;3.04;73.43
44481;BME280;30184;42.018;23.670;2023-03-17T06:03:47;91646.41;;;3.13;73.00
44481;BME280;30184;42.018;23.670;2023-03-17T06:06:17;91651.03;;;3.23;72.49
44481;BME280;30184;42.018;23.670;2023-03-17T06:08:46;91653.69;;;3.30;71.62
44481;BME280;30184;42.018;23.670;2023-03-17T06:11:17;91654.09;;;3.40;70.64
44481;BME280;30184;42.018;23.670;2023-03-17T06:13:48;91662.53;;;3.49;70.41
44481;BME280;30184;42.018;23.670;2023-03-17T06:16:17;91655.63;;;3.55;69.38
44481;BME280;30184;42.018;23.670;2023-03-17T06:18:47;91660.59;;;3.56;69.66
44481;BME280;30184;42.018;23.670;2023-03-17T06:21:16;91666.75;;;3.64;68.65
44481;BME280;30184;42.018;23.670;2023-03-17T06:23:45;91670.19;;;3.68;68.69
44481;BME280;30184;42.018;23.670;2023-03-17T06:26:14;91659.84;;;3.63;68.83
44481;BME280;30184;42.018;23.670;2023-03-17T06:28:45;91677.47;;;3.82;69.04
44481;BME280;30184;42.018;23.670;2023-03-17T06:31:15;91656.78;;;3.68;67.74
44481;BME280;30184;42.018;23.670;2023-03-17T06:33:44;91677.84;;;3.80;67.04
44481;BME280;30184;42.018;23.670;2023-03-17T06:36:13;91667.88;;;3.73;67.11
44481;BME280;30184;42.018;23.670;2023-03-17T06:38:43;91673.66;;;3.75;66.41
44481;BME280;30184;42.018;23.670;2023-03-17T06:41:17;91646.03;;;3.54;66.77
44481;BME280;30184;42.018;23.670;2023-03-17T06:43:54;91641.06;;;3.49;66.09
44481;BME280;30184;42.018;23.670;2023-03-17T06:46:23;91685.91;;;3.80;66.74
44481;BME280;30184;42.018;23.670;2023-03-17T06:48:52;91687.06;;;3.86;66.31
44481;BME280;30184;42.018;23.670;2023-03-17T06:51:22;91683.22;;;3.91;66.75
44481;BME280;30184;42.018;23.670;2023-03-17T06:53:51;91691.28;;;3.87;67.52
44481;BME280;30184;42.018;23.670;2023-03-17T06:56:20;91621.88;;;3.54;66.47
44481;BME280;30184;42.018;23.670;2023-03-17T06:58:58;91696.25;;;4.13;65.88
44481;BME280;30184;42.018;23.670;2023-03-17T07:01:27;91688.94;;;4.10;65.23
44481;BME280;30184;42.018;23.670;2023-03-17T07:03:56;91692.44;;;4.07;64.90
44481;BME280;30184;42.018;23.670;2023-03-17T07:06:26;91697.00;;;4.10;64.29
44481;BME280;30184;42.018;23.670;2023-03-17T07:08:55;91693.53;;;4.21;64.80
44481;BME280;30184;42.018;23.670;2023-03-17T07:11:24;91703.50;;;4.31;64.61
44481;BME280;30184;42.018;23.670;2023-03-17T07:13:55;91696.56;;;4.40;65.00
44481;BME280;30184;42.018;23.670;2023-03-17T07:16:26;91701.59;;;4.28;64.14
44481;BME280;30184;42.018;23.670;2023-03-17T07:18:56;91703.88;;;4.43;63.94
44481;BME280;30184;42.018;23.670;2023-03-17T07:21:26;91688.53;;;4.44;64.46
44481;BME280;30184;42.018;23.670;2023-03-17T07:23:55;91716.84;;;4.70;64.44
44481;BME280;30184;42.018;23.670;2023-03-17T07:26:24;91703.75;;;4.79;64.96
44481;BME280;30184;42.018;23.670;2023-03-17T07:28:53;91712.91;;;4.92;63.16
44481;BME280;30184;42.018;23.670;2023-03-17T07:31:22;91715.94;;;5.05;63.11
44481;BME280;30184;42.018;23.670;2023-03-17T07:33:53;91705.91;;;5.16;62.84
44481;BME280;30184;42.018;23.670;2023-03-17T07:36:24;91713.59;;;5.17;61.21
44481;BME280;30184;42.018;23.670;2023-03-17T07:38:54;91716.69;;;5.16;60.74
44481;BME280;30184;42.018;23.670;2023-03-17T07:41:23;91714.31;;;5.25;61.11
44481;BME280;30184;42.018;23.670;2023-03-17T07:43:52;91713.47;;;5.39;61.24
44481;BME280;30184;42.018;23.670;2023-03-17T07:46:22;91714.19;;;5.50;61.06
44481;BME280;30184;42.018;23.670;2023-03-17T07:48:52;91713.34;;;5.60;60.30
44481;BME280;30184;42.018;23.670;2023-03-17T07:51:22;91688.13;;;5.36;59.53
44481;BME280;30184;42.018;23.670;2023-03-17T07:53:54;91714.16;;;5.53;60.35
44481;BME280;30184;42.018;23.670;2023-03-17T07:56:30;91667.44;;;5.26;59.55
44481;BME280;30184;42.018;23.670;2023-03-17T07:59:00;91714.56;;;5.52;60.15
44481;BME280;30184;42.018;23.670;2023-03-17T08:01:29;91705.00;;;5.44;59.99
44481;BME280;30184;42.018;23.670;2023-03-17T08:04:00;91713.84;;;5.41;59.15
44481;BME280;30184;42.018;23.670;2023-03-17T08:06:31;91708.78;;;5.53;59.08
44481;BME280;30184;42.018;23.670;2023-03-17T08:09:00;91708.72;;;5.60;59.19
44481;BME280;30184;42.018;23.670;2023-03-17T08:11:30;91723.28;;;5.70;58.39
44481;BME280;30184;42.018;23.670;2023-03-17T08:14:00;91684.50;;;5.60;58.34
44481;BME280;30184;42.018;23.670;2023-03-17T08:16:29;91717.41;;;5.93;57.83
44481;BME280;30184;42.018;23.670;2023-03-17T08:19:00;91716.63;;;5.92;57.83
44481;BME280;30184;42.018;23.670;2023-03-17T08:21:30;91721.25;;;5.88;57.45
44481;BME280;30184;42.018;23.670;2023-03-17T08:24:00;91722.03;;;5.89;57.95
44481;BME280;30184;42.018;23.670;2023-03-17T08:26:31;91709.72;;;5.91;57.14
44481;BME280;30184;42.018;23.670;2023-03-17T08:29:00;91719.53;;;6.12;57.41
44481;BME280;30184;42.018;23.670;2023-03-17T08:31:29;91706.06;;;6.57;56.25
44481;BME280;30184;42.018;23.670;2023-03-17T08:34:01;91704.66;;;6.79;55.33
44481;BME280;30184;42.018;23.670;2023-03-17T08:36:31;91695.75;;;6.86;54.92
44481;BME280;30184;42.018;23.670;2023-03-17T08:39:01;91698.22;;;7.03;54.66
44481;BME280;30184;42.018;23.670;2023-03-17T08:41:32;91689.41;;;7.30;54.03
44481;BME280;30184;42.018;23.670;2023-03-17T08:44:01;91684.97;;;7.43;53.14
44481;BME280;30184;42.018;23.670;2023-03-17T08:46:31;91691.66;;;7.62;53.02
44481;BME280;30184;42.018;23.670;2023-03-17T08:49:02;91671.50;;;7.70;51.87
44481;BME280;30184;42.018;23.670;2023-03-17T08:51:34;91687.84;;;7.86;51.00
44481;BME280;30184;42.018;23.670;2023-03-17T08:54:04;91603.53;;;7.48;51.30
44481;BME280;30184;42.018;23.670;2023-03-17T08:56:34;91683.59;;;8.12;50.72
44481;BME280;30184;42.018;23.670;2023-03-17T08:59:04;91678.22;;;8.08;50.73
44481;BME280;30184;42.018;23.670;2023-03-17T09:01:33;91681.41;;;8.27;49.91
44481;BME280;30184;42.018;23.670;2023-03-17T09:04:04;91621.78;;;7.91;49.88
44481;BME280;30184;42.018;23.670;2023-03-17T09:06:33;91681.69;;;8.09;49.73
44481;BME280;30184;42.018;23.670;2023-03-17T09:09:02;91676.81;;;8.00;50.19
44481;BME280;30184;42.018;23.670;2023-03-17T09:11:31;91666.66;;;8.08;49.58
44481;BME280;30184;42.018;23.670;2023-03-17T09:14:01;91661.66;;;8.33;49.29
44481;BME280;30184;42.018;23.670;2023-03-17T09:16:31;91667.34;;;8.39;48.92
44481;BME280;30184;42.018;23.670;2023-03-17T09:19:01;91659.53;;;8.64;49.34
44481;BME280;30184;42.018;23.670;2023-03-17T09:21:32;91661.78;;;8.69;47.38
44481;BME280;30184;42.018;23.670;2023-03-17T09:24:01;91660.16;;;8.72;48.29
44481;BME280;30184;42.018;23.670;2023-03-17T09:26:31;91668.38;;;8.88;47.91
44481;BME280;30184;42.018;23.670;2023-03-17T09:29:00;91666.34;;;8.92;47.56
44481;BME280;30184;42.018;23.670;2023-03-17T09:31:30;91670.25;;;8.91;47.45
44481;BME280;30184;42.018;23.670;2023-03-17T09:33:59;91658.38;;;8.85;46.58
44481;BME280;30184;42.018;23.670;2023-03-17T09:36:29;91666.78;;;8.71;47.32
44481;BME280;30184;42.018;23.670;2023-03-17T09:39:01;91668.19;;;8.55;47.16
44481;BME280;30184;42.018;23.670;2023-03-17T09:41:47;91658.97;;;8.53;47.06
44481;BME280;30184;42.018;23.670;2023-03-17T09:44:31;91661.13;;;8.42;47.04
44481;BME280;30184;42.018;23.670;2023-03-17T09:47:12;91669.56;;;8.44;47.63
44481;BME280;30184;42.018;23.670;2023-03-17T09:49:50;91681.34;;;8.53;46.06
44481;BME280;30184;42.018;23.670;2023-03-17T09:52:24;91677.25;;;8.69;46.28
44481;BME280;30184;42.018;23.670;2023-03-17T09:54:57;91684.09;;;8.73;46.38
44481;BME280;30184;42.018;23.670;2023-03-17T09:57:30;91664.81;;;8.91;46.35
44481;BME280;30184;42.018;23.670;2023-03-17T10:00:02;91644.91;;;8.81;45.54
44481;BME280;30184;42.018;23.670;2023-03-17T10:02:35;91660.75;;;9.03;45.66
44481;BME280;30184;42.018;23.670;2023-03-17T10:05:12;91641.59;;;8.93;44.52
44481;BME280;30184;42.018;23.670;2023-03-17T10:07:49;91658.53;;;9.17;43.77
44481;BME280;30184;42.018;23.670;2023-03-17T10:10:26;91666.97;;;9.19;43.90
44481;BME280;30184;42.018;23.670;2023-03-17T10:13:02;91663.03;;;9.24;44.62
44481;BME280;30184;42.018;23.670;2023-03-17T10:15:40;91679.28;;;9.24;43.92
44481;BME280;30184;42.018;23.670;2023-03-17T10:18:15;91661.94;;;9.38;43.92
44481;BME280;30184;42.018;23.670;2023-03-17T10:20:51;91640.03;;;9.32;43.71
44481;BME280;30184;42.018;23.670;2023-03-17T10:23:25;91645.19;;;9.26;43.92
44481;BME280;30184;42.018;23.670;2023-03-17T10:26:01;91658.81;;;9.39;44.15
44481;BME280;30184;42.018;23.670;2023-03-17T10:28:34;91656.34;;;9.28;43.95
44481;BME280;30184;42.018;23.670;2023-03-17T10:31:13;91640.59;;;9.23;44.69
44481;BME280;30184;42.018;23.670;2023-03-17T10:33:48;91648.81;;;8.60;44.24
44481;BME280;30184;42.018;23.670;2023-03-17T10:36:32;91649.69;;;9.13;43.88
44481;BME280;30184;42.018;23.670;2023-03-17T10:39:04;91639.06;;;9.22;43.39
44481;BME280;30184;42.018;23.670;2023-03-17T10:41:38;91631.88;;;8.96;43.49
44481;BME280;30184;42.018;23.670;2023-03-17T10:44:09;91645.75;;;8.98;43.71
44481;BME280;30184;42.018;23.670;2023-03-17T10:46:38;91649.84;;;8.86;44.23
44481;BME280;30184;42.018;23.670;2023-03-17T10:49:15;91644.63;;;8.76;44.99
44481;BME280;30184;42.018;23.670;2023-03-17T10:51:45;91645.19;;;8.67;44.45
44481;BME280;30184;42.018;23.670;2023-03-17T10:54:16;91640.69;;;8.60;45.24
44481;BME280;30184;42.018;23.670;2023-03-17T10:56:49;91636.06;;;8.38;45.71
44481;BME280;30184;42.018;23.670;2023-03-17T10:59:28;91647.16;;;8.20;45.83
44481;BME280;30184;42.018;23.670;2023-03-17T11:02:00;91649.63;;;8.11;46.02
44481;BME280;30184;42.018;23.670;2023-03-17T11:04:33;91645.88;;;8.05;46.26
44481;BME280;30184;42.018;23.670;2023-03-17T11:07:06;91645.97;;;7.98;46.67
44481;BME280;30184;42.018;23.670;2023-03-17T11:09:38;91639.06;;;7.97;45.88
44481;BME280;30184;42.018;23.670;2023-03-17T11:12:21;91645.63;;;7.96;46.38
44481;BME280;30184;42.018;23.670;2023-03-17T11:14:59;91638.00;;;8.14;45.26
44481;BME280;30184;42.018;23.670;2023-03-17T11:17:37;91638.34;;;8.16;46.06
44481;BME280;30184;42.018;23.670;2023-03-17T11:20:28;91603.50;;;8.21;45.63
44481;BME280;30184;42.018;23.670;2023-03-17T11:23:06;91621.03;;;8.56;44.95
44481;BME280;30184;42.018;23.670;2023-03-17T11:25:41;91640.53;;;8.68;44.22
44481;BME280;30184;42.018;23.670;2023-03-17T11:28:18;91636.66;;;8.69;44.92
44481;BME280;30184;42.018;23.670;2023-03-17T11:30:58;91627.28;;;8.53;44.51
44481;BME280;30184;42.018;23.670;2023-03-17T11:33:34;91633.53;;;8.50;44.20
44481;BME280;30184;42.018;23.670;2023-03-17T11:36:12;91626.50;;;8.33;44.29
44481;BME280;30184;42.018;23.670;2023-03-17T11:38:53;91632.25;;;8.35;44.39
44481;BME280;30184;42.018;23.670;2023-03-17T11:41:44;91617.28;;;8.27;44.42
44481;BME280;30184;42.018;23.670;2023-03-17T11:47:40;91625.59;;;8.16;44.59
44481;BME280;30184;42.018;23.670;2023-03-17T11:50:21;91622.59;;;8.11;45.27
44481;BME280;30184;42.018;23.670;2023-03-17T11:53:04;91635.75;;;8.09;45.69
44481;BME280;30184;42.018;23.670;2023-03-17T11:55:42;91625.31;;;8.11;45.07
44481;BME280;30184;42.018;23.670;2023-03-17T11:58:21;91625.47;;;8.00;45.48
44481;BME280;30184;42.018;23.670;2023-03-17T12:00:54;91626.78;;;7.92;45.68
44481;BME280;30184;42.018;23.670;2023-03-17T12:03:30;91619.69;;;7.78;45.64
44481;BME280;30184;42.018;23.670;2023-03-17T12:06:06;91641.84;;;7.66;45.76
44481;BME280;30184;42.018;23.670;2023-03-17T12:08:41;91633.44;;;7.61;45.97
44481;BME280;30184;42.018;23.670;2023-03-17T12:11:15;91661.72;;;7.53;46.51
44481;BME280;30184;42.018;23.670;2023-03-17T12:13:49;91659.63;;;7.37;46.24
44481;BME280;30184;42.018;23.670;2023-03-17T12:16:22;91629.19;;;7.33;46.02
44481;BME280;30184;42.018;23.670;2023-03-17T12:19:01;91626.25;;;7.24;46.21
44481;BME280;30184;42.018;23.670;2023-03-17T12:21:36;91627.69;;;7.32;46.48
44481;BME280;30184;42.018;23.670;2023-03-17T12:24:10;91625.28;;;7.37;46.38
44481;BME280;30184;42.018;23.670;2023-03-17T12:26:48;91630.69;;;7.37;46.44
44481;BME280;30184;42.018;23.670;2023-03-17T12:29:24;91608.03;;;7.31;46.26
44481;BME280;30184;42.018;23.670;2023-03-17T12:32:01;91631.75;;;7.43;46.03
44481;BME280;30184;42.018;23.670;2023-03-17T12:34:38;91630.22;;;7.42;46.15
44481;BME280;30184;42.018;23.670;2023-03-17T12:37:10;91632.66;;;7.33;46.25
44481;BME280;30184;42.018;23.670;2023-03-17T12:39:45;91625.34;;;7.34;46.37
44481;BME280;30184;42.018;23.670;2023-03-17T12:42:30;91636.09;;;7.37;46.14
44481;BME280;30184;42.018;23.670;2023-03-17T12:45:35;91634.66;;;7.29;46.41
44481;BME280;30184;42.018;23.670;2023-03-17T12:51:44;91629.63;;;7.31;46.60
44481;BME280;30184;42.018;23.670;2023-03-17T12:54:18;91626.75;;;7.42;46.58
44481;BME280;30184;42.018;23.670;2023-03-17T12:56:48;91641.34;;;7.48;46.92
44481;BME280;30184;42.018;23.670;2023-03-17T12:59:20;91632.00;;;7.53;46.23
44481;BME280;30184;42.018;23.670;2023-03-17T13:01:55;91596.13;;;7.29;46.23
44481;BME280;30184;42.018;23.670;2023-03-17T13:04:27;91617.97;;;7.38;46.57
44481;BME280;30184;42.018;23.670;2023-03-17T13:07:05;91602.53;;;7.11;46.32
44481;BME280;30184;42.018;23.670;2023-03-17T13:10:09;91633.16;;;7.25;46.40
44481;BME280;30184;42.018;23.670;2023-03-17T13:13:07;91636.63;;;7.25;46.94
44481;BME280;30184;42.018;23.670;2023-03-17T13:18:51;91632.63;;;7.10;47.56
44481;BME280;30184;42.018;23.670;2023-03-17T13:21:24;91633.78;;;7.09;47.61
44481;BME280;30184;42.018;23.670;2023-03-17T13:26:53;91649.03;;;6.92;48.08
44481;BME280;30184;42.018;23.670;2023-03-17T13:29:36;91639.84;;;6.86;48.44
44481;BME280;30184;42.018;23.670;2023-03-17T13:35:18;91623.88;;;6.99;49.04
44481;BME280;30184;42.018;23.670;2023-03-17T13:38:00;91626.56;;;7.02;48.62
44481;BME280;30184;42.018;23.670;2023-03-17T13:40:44;91626.09;;;7.07;48.71
44481;BME280;30184;42.018;23.670;2023-03-17T13:43:31;91634.06;;;7.15;48.18
44481;BME280;30184;42.018;23.670;2023-03-17T13:46:23;91568.59;;;6.53;48.45